Rocky Hill, Mississippi
Current Conditions -  °F | °C
As of 2:55 AM on Saturday 29 Nov 2014 (Local Time) from KSTF Reporting Station
Clear Clear  
Wind Chill: 36°   Ceiling: Unl
Heat Index: 36°   Visibility: NA
Dew Point: 32°   Wind: 0mph
Humidity: 87%   Direction: NA
Pressure: 30.19"   Gusts: NA
Location:  33.4256°N, 88.8438°W
Report Text: KSTF 290855Z AUTO 00000KT CLR 02/00 A3019 RMK AO2 PWINO
Loading
Personal Weather Stations






























Interactive Weather Map New forecast layout! Learn more

10-Day Weather Forecast

Advertisements
Track Severe Weather on mobile